sensor_id;sensor_type;location;lat;lon;timestamp;P1;durP1;ratioP1;P2;durP2;ratioP2
16965;SDS011;8599;47.852;12.070;2023-12-20T00:00:59;8.00;;;4.13;;
16965;SDS011;8599;47.852;12.070;2023-12-20T00:03:26;12.10;;;4.50;;
16965;SDS011;8599;47.852;12.070;2023-12-20T00:05:53;8.37;;;4.80;;
16965;SDS011;8599;47.852;12.070;2023-12-20T00:08:20;11.30;;;3.97;;
16965;SDS011;8599;47.852;12.070;2023-12-20T00:10:47;7.13;;;3.90;;
16965;SDS011;8599;47.852;12.070;2023-12-20T00:13:15;6.80;;;3.47;;
16965;SDS011;8599;47.852;12.070;2023-12-20T00:15:42;8.10;;;4.17;;
16965;SDS011;8599;47.852;12.070;2023-12-20T00:18:09;6.60;;;3.73;;
16965;SDS011;8599;47.852;12.070;2023-12-20T00:20:36;3.80;;;3.10;;
16965;SDS011;8599;47.852;12.070;2023-12-20T00:23:03;7.00;;;3.80;;
16965;SDS011;8599;47.852;12.070;2023-12-20T00:25:30;6.97;;;3.50;;
16965;SDS011;8599;47.852;12.070;2023-12-20T00:27:57;8.90;;;3.53;;
16965;SDS011;8599;47.852;12.070;2023-12-20T00:30:25;9.87;;;3.47;;
16965;SDS011;8599;47.852;12.070;2023-12-20T00:32:52;7.70;;;3.57;;
16965;SDS011;8599;47.852;12.070;2023-12-20T00:35:18;4.57;;;3.00;;
16965;SDS011;8599;47.852;12.070;2023-12-20T00:37:45;8.00;;;3.70;;
16965;SDS011;8599;47.852;12.070;2023-12-20T00:40:12;5.27;;;3.40;;
16965;SDS011;8599;47.852;12.070;2023-12-20T00:42:39;6.77;;;3.33;;
16965;SDS011;8599;47.852;12.070;2023-12-20T00:45:06;5.10;;;3.00;;
16965;SDS011;8599;47.852;12.070;2023-12-20T00:47:35;7.83;;;3.20;;
16965;SDS011;8599;47.852;12.070;2023-12-20T00:50:02;4.63;;;3.00;;
16965;SDS011;8599;47.852;12.070;2023-12-20T00:52:29;5.47;;;3.27;;
16965;SDS011;8599;47.852;12.070;2023-12-20T00:54:56;5.63;;;3.60;;
16965;SDS011;8599;47.852;12.070;2023-12-20T00:57:22;7.23;;;3.63;;
16965;SDS011;8599;47.852;12.070;2023-12-20T00:59:50;7.93;;;3.67;;
16965;SDS011;8599;47.852;12.070;2023-12-20T01:02:17;6.47;;;3.30;;
16965;SDS011;8599;47.852;12.070;2023-12-20T01:04:45;4.33;;;3.20;;
16965;SDS011;8599;47.852;12.070;2023-12-20T01:07:12;4.30;;;3.03;;
16965;SDS011;8599;47.852;12.070;2023-12-20T01:09:39;4.87;;;3.50;;
16965;SDS011;8599;47.852;12.070;2023-12-20T01:12:06;4.43;;;3.17;;
16965;SDS011;8599;47.852;12.070;2023-12-20T01:14:33;4.67;;;3.00;;
16965;SDS011;8599;47.852;12.070;2023-12-20T01:17:01;5.37;;;3.20;;
16965;SDS011;8599;47.852;12.070;2023-12-20T01:19:28;4.90;;;2.93;;
16965;SDS011;8599;47.852;12.070;2023-12-20T01:21:56;4.93;;;2.87;;
16965;SDS011;8599;47.852;12.070;2023-12-20T01:24:23;6.83;;;3.40;;
16965;SDS011;8599;47.852;12.070;2023-12-20T01:26:50;4.60;;;3.00;;
16965;SDS011;8599;47.852;12.070;2023-12-20T01:29:17;6.37;;;3.13;;
16965;SDS011;8599;47.852;12.070;2023-12-20T01:31:44;4.37;;;2.97;;
16965;SDS011;8599;47.852;12.070;2023-12-20T01:34:11;5.57;;;3.20;;
16965;SDS011;8599;47.852;12.070;2023-12-20T01:36:38;5.53;;;3.23;;
16965;SDS011;8599;47.852;12.070;2023-12-20T01:39:06;5.20;;;3.30;;
16965;SDS011;8599;47.852;12.070;2023-12-20T01:41:33;4.80;;;3.13;;
16965;SDS011;8599;47.852;12.070;2023-12-20T01:44:00;4.40;;;2.90;;
16965;SDS011;8599;47.852;12.070;2023-12-20T01:46:27;5.67;;;3.10;;
16965;SDS011;8599;47.852;12.070;2023-12-20T01:48:54;3.83;;;2.77;;
16965;SDS011;8599;47.852;12.070;2023-12-20T01:51:21;4.87;;;3.10;;
16965;SDS011;8599;47.852;12.070;2023-12-20T01:53:49;10.93;;;3.33;;
16965;SDS011;8599;47.852;12.070;2023-12-20T01:56:17;7.47;;;4.10;;
16965;SDS011;8599;47.852;12.070;2023-12-20T01:58:44;6.10;;;4.13;;
16965;SDS011;8599;47.852;12.070;2023-12-20T02:01:13;6.47;;;3.37;;
16965;SDS011;8599;47.852;12.070;2023-12-20T02:03:41;6.90;;;3.50;;
16965;SDS011;8599;47.852;12.070;2023-12-20T02:06:08;4.57;;;3.03;;
16965;SDS011;8599;47.852;12.070;2023-12-20T02:08:35;5.20;;;2.70;;
16965;SDS011;8599;47.852;12.070;2023-12-20T02:11:03;5.87;;;3.30;;
16965;SDS011;8599;47.852;12.070;2023-12-20T02:13:31;5.60;;;3.07;;
16965;SDS011;8599;47.852;12.070;2023-12-20T02:15:58;3.87;;;2.90;;
16965;SDS011;8599;47.852;12.070;2023-12-20T02:18:25;4.77;;;3.10;;
16965;SDS011;8599;47.852;12.070;2023-12-20T02:20:52;4.20;;;2.83;;
16965;SDS011;8599;47.852;12.070;2023-12-20T02:23:21;3.73;;;2.70;;
16965;SDS011;8599;47.852;12.070;2023-12-20T02:25:47;9.87;;;3.40;;
16965;SDS011;8599;47.852;12.070;2023-12-20T02:28:14;10.27;;;2.93;;
16965;SDS011;8599;47.852;12.070;2023-12-20T02:30:42;2.97;;;2.40;;
16965;SDS011;8599;47.852;12.070;2023-12-20T02:33:10;6.03;;;3.23;;
16965;SDS011;8599;47.852;12.070;2023-12-20T02:35:40;9.67;;;3.47;;
16965;SDS011;8599;47.852;12.070;2023-12-20T02:38:07;9.23;;;3.00;;
16965;SDS011;8599;47.852;12.070;2023-12-20T02:40:35;6.83;;;3.23;;
16965;SDS011;8599;47.852;12.070;2023-12-20T02:43:02;6.70;;;2.67;;
16965;SDS011;8599;47.852;12.070;2023-12-20T02:45:29;5.27;;;2.87;;
16965;SDS011;8599;47.852;12.070;2023-12-20T02:47:56;4.87;;;2.90;;
16965;SDS011;8599;47.852;12.070;2023-12-20T02:50:22;3.23;;;2.23;;
16965;SDS011;8599;47.852;12.070;2023-12-20T02:52:49;7.17;;;3.30;;
16965;SDS011;8599;47.852;12.070;2023-12-20T02:55:16;5.70;;;2.63;;
16965;SDS011;8599;47.852;12.070;2023-12-20T02:57:44;3.87;;;2.80;;
16965;SDS011;8599;47.852;12.070;2023-12-20T03:00:11;4.53;;;2.20;;
16965;SDS011;8599;47.852;12.070;2023-12-20T03:02:39;4.60;;;2.40;;
16965;SDS011;8599;47.852;12.070;2023-12-20T03:05:06;4.40;;;2.63;;
16965;SDS011;8599;47.852;12.070;2023-12-20T03:07:33;4.37;;;2.77;;
16965;SDS011;8599;47.852;12.070;2023-12-20T03:10:00;3.40;;;2.50;;
16965;SDS011;8599;47.852;12.070;2023-12-20T03:12:27;3.97;;;2.63;;
16965;SDS011;8599;47.852;12.070;2023-12-20T03:14:55;6.67;;;2.97;;
16965;SDS011;8599;47.852;12.070;2023-12-20T03:17:22;3.70;;;2.67;;
16965;SDS011;8599;47.852;12.070;2023-12-20T03:19:49;4.17;;;2.17;;
16965;SDS011;8599;47.852;12.070;2023-12-20T03:22:15;8.23;;;3.17;;
16965;SDS011;8599;47.852;12.070;2023-12-20T03:24:45;5.33;;;2.50;;
16965;SDS011;8599;47.852;12.070;2023-12-20T03:27:11;3.00;;;2.50;;
16965;SDS011;8599;47.852;12.070;2023-12-20T03:29:38;3.57;;;2.03;;
16965;SDS011;8599;47.852;12.070;2023-12-20T03:32:07;3.27;;;2.53;;
16965;SDS011;8599;47.852;12.070;2023-12-20T03:34:34;3.53;;;1.90;;
16965;SDS011;8599;47.852;12.070;2023-12-20T03:37:01;4.87;;;2.93;;
16965;SDS011;8599;47.852;12.070;2023-12-20T03:39:28;4.07;;;2.53;;
16965;SDS011;8599;47.852;12.070;2023-12-20T03:41:55;4.73;;;2.90;;
16965;SDS011;8599;47.852;12.070;2023-12-20T03:44:21;4.03;;;2.73;;
16965;SDS011;8599;47.852;12.070;2023-12-20T03:46:48;7.33;;;3.10;;
16965;SDS011;8599;47.852;12.070;2023-12-20T03:49:16;5.77;;;2.93;;
16965;SDS011;8599;47.852;12.070;2023-12-20T03:51:43;7.17;;;3.00;;
16965;SDS011;8599;47.852;12.070;2023-12-20T03:54:10;3.47;;;2.40;;
16965;SDS011;8599;47.852;12.070;2023-12-20T03:56:37;6.73;;;2.70;;
16965;SDS011;8599;47.852;12.070;2023-12-20T03:59:04;5.63;;;2.73;;
16965;SDS011;8599;47.852;12.070;2023-12-20T04:01:30;10.50;;;2.63;;
16965;SDS011;8599;47.852;12.070;2023-12-20T04:03:57;4.80;;;3.10;;
16965;SDS011;8599;47.852;12.070;2023-12-20T04:06:26;5.60;;;2.47;;
16965;SDS011;8599;47.852;12.070;2023-12-20T04:08:53;3.30;;;2.47;;
16965;SDS011;8599;47.852;12.070;2023-12-20T04:11:20;4.03;;;2.10;;
16965;SDS011;8599;47.852;12.070;2023-12-20T04:13:46;1.60;;;1.47;;
16965;SDS011;8599;47.852;12.070;2023-12-20T04:16:13;1.73;;;1.50;;
16965;SDS011;8599;47.852;12.070;2023-12-20T04:18:40;2.17;;;1.47;;
16965;SDS011;8599;47.852;12.070;2023-12-20T04:21:07;4.20;;;1.50;;
16965;SDS011;8599;47.852;12.070;2023-12-20T04:23:35;1.60;;;1.13;;
16965;SDS011;8599;47.852;12.070;2023-12-20T04:26:02;3.70;;;2.00;;
16965;SDS011;8599;47.852;12.070;2023-12-20T04:28:29;1.70;;;1.37;;
16965;SDS011;8599;47.852;12.070;2023-12-20T04:30:56;1.67;;;1.40;;
16965;SDS011;8599;47.852;12.070;2023-12-20T04:33:23;4.30;;;1.40;;
16965;SDS011;8599;47.852;12.070;2023-12-20T04:35:49;1.97;;;1.40;;
16965;SDS011;8599;47.852;12.070;2023-12-20T04:38:16;2.27;;;1.40;;
16965;SDS011;8599;47.852;12.070;2023-12-20T04:40:45;1.87;;;1.63;;
16965;SDS011;8599;47.852;12.070;2023-12-20T04:43:12;1.93;;;1.40;;
16965;SDS011;8599;47.852;12.070;2023-12-20T04:45:39;2.13;;;1.60;;
16965;SDS011;8599;47.852;12.070;2023-12-20T04:48:06;1.13;;;1.00;;
16965;SDS011;8599;47.852;12.070;2023-12-20T04:50:33;1.50;;;1.10;;
16965;SDS011;8599;47.852;12.070;2023-12-20T04:53:00;1.40;;;1.30;;
16965;SDS011;8599;47.852;12.070;2023-12-20T04:55:28;1.50;;;1.40;;
16965;SDS011;8599;47.852;12.070;2023-12-20T04:57:57;2.77;;;1.33;;
16965;SDS011;8599;47.852;12.070;2023-12-20T05:00:24;2.80;;;1.80;;
16965;SDS011;8599;47.852;12.070;2023-12-20T05:02:50;1.60;;;1.50;;
16965;SDS011;8599;47.852;12.070;2023-12-20T05:05:17;2.67;;;2.00;;
16965;SDS011;8599;47.852;12.070;2023-12-20T05:07:44;1.40;;;1.23;;
16965;SDS011;8599;47.852;12.070;2023-12-20T05:10:11;1.37;;;1.23;;
16965;SDS011;8599;47.852;12.070;2023-12-20T05:12:38;4.17;;;1.60;;
16965;SDS011;8599;47.852;12.070;2023-12-20T05:15:07;2.80;;;1.90;;
16965;SDS011;8599;47.852;12.070;2023-12-20T05:17:34;2.00;;;1.33;;
16965;SDS011;8599;47.852;12.070;2023-12-20T05:20:01;4.47;;;1.13;;
16965;SDS011;8599;47.852;12.070;2023-12-20T05:22:28;1.87;;;1.30;;
16965;SDS011;8599;47.852;12.070;2023-12-20T05:24:54;1.87;;;1.40;;
16965;SDS011;8599;47.852;12.070;2023-12-20T05:27:21;2.13;;;1.30;;
16965;SDS011;8599;47.852;12.070;2023-12-20T05:29:48;1.20;;;1.10;;
16965;SDS011;8599;47.852;12.070;2023-12-20T05:32:16;1.33;;;1.03;;
16965;SDS011;8599;47.852;12.070;2023-12-20T05:34:43;1.77;;;1.30;;
16965;SDS011;8599;47.852;12.070;2023-12-20T05:37:10;1.37;;;1.03;;
16965;SDS011;8599;47.852;12.070;2023-12-20T05:39:37;1.67;;;1.33;;
16965;SDS011;8599;47.852;12.070;2023-12-20T05:42:04;5.00;;;1.30;;
16965;SDS011;8599;47.852;12.070;2023-12-20T05:44:31;2.43;;;1.50;;
16965;SDS011;8599;47.852;12.070;2023-12-20T05:46:58;1.60;;;1.30;;
16965;SDS011;8599;47.852;12.070;2023-12-20T05:49:26;3.00;;;1.30;;
16965;SDS011;8599;47.852;12.070;2023-12-20T05:51:53;1.40;;;1.30;;
16965;SDS011;8599;47.852;12.070;2023-12-20T05:54:20;1.40;;;1.30;;
16965;SDS011;8599;47.852;12.070;2023-12-20T05:56:47;1.47;;;1.30;;
16965;SDS011;8599;47.852;12.070;2023-12-20T05:59:14;1.30;;;1.20;;
16965;SDS011;8599;47.852;12.070;2023-12-20T06:01:40;2.53;;;1.33;;
16965;SDS011;8599;47.852;12.070;2023-12-20T06:04:07;1.57;;;1.33;;
16965;SDS011;8599;47.852;12.070;2023-12-20T06:06:39;1.57;;;1.30;;
16965;SDS011;8599;47.852;12.070;2023-12-20T06:09:07;1.53;;;1.43;;
16965;SDS011;8599;47.852;12.070;2023-12-20T06:11:34;1.77;;;1.60;;
16965;SDS011;8599;47.852;12.070;2023-12-20T06:14:01;1.83;;;1.20;;
16965;SDS011;8599;47.852;12.070;2023-12-20T06:16:27;1.10;;;0.90;;
16965;SDS011;8599;47.852;12.070;2023-12-20T06:18:55;1.17;;;1.13;;
16965;SDS011;8599;47.852;12.070;2023-12-20T06:21:21;1.40;;;1.30;;
16965;SDS011;8599;47.852;12.070;2023-12-20T06:23:50;2.23;;;1.70;;
16965;SDS011;8599;47.852;12.070;2023-12-20T06:26:16;3.40;;;1.63;;
16965;SDS011;8599;47.852;12.070;2023-12-20T06:28:43;1.60;;;1.07;;
16965;SDS011;8599;47.852;12.070;2023-12-20T06:31:10;1.80;;;1.53;;
16965;SDS011;8599;47.852;12.070;2023-12-20T06:33:37;1.27;;;1.17;;
16965;SDS011;8599;47.852;12.070;2023-12-20T06:36:05;2.47;;;1.40;;
16965;SDS011;8599;47.852;12.070;2023-12-20T06:38:32;1.73;;;1.33;;
16965;SDS011;8599;47.852;12.070;2023-12-20T06:41:01;1.27;;;1.03;;
16965;SDS011;8599;47.852;12.070;2023-12-20T06:43:27;1.10;;;1.00;;
16965;SDS011;8599;47.852;12.070;2023-12-20T06:45:55;1.27;;;1.17;;
16965;SDS011;8599;47.852;12.070;2023-12-20T06:48:22;2.00;;;1.57;;
16965;SDS011;8599;47.852;12.070;2023-12-20T06:50:49;2.43;;;1.17;;
16965;SDS011;8599;47.852;12.070;2023-12-20T06:53:15;2.37;;;1.43;;
16965;SDS011;8599;47.852;12.070;2023-12-20T06:55:42;3.47;;;2.33;;
16965;SDS011;8599;47.852;12.070;2023-12-20T06:58:10;1.97;;;1.63;;
16965;SDS011;8599;47.852;12.070;2023-12-20T07:00:37;3.50;;;1.13;;
16965;SDS011;8599;47.852;12.070;2023-12-20T07:03:04;3.23;;;1.60;;
16965;SDS011;8599;47.852;12.070;2023-12-20T07:05:31;5.07;;;1.30;;
16965;SDS011;8599;47.852;12.070;2023-12-20T07:07:58;2.97;;;2.13;;
16965;SDS011;8599;47.852;12.070;2023-12-20T07:10:25;2.77;;;1.50;;
16965;SDS011;8599;47.852;12.070;2023-12-20T07:12:51;1.80;;;1.33;;
16965;SDS011;8599;47.852;12.070;2023-12-20T07:15:21;2.23;;;1.80;;
16965;SDS011;8599;47.852;12.070;2023-12-20T07:17:48;2.13;;;1.65;;
16965;SDS011;8599;47.852;12.070;2023-12-20T07:20:15;0.80;;;0.80;;
16965;SDS011;8599;47.852;12.070;2023-12-20T07:22:42;1.10;;;1.00;;
16965;SDS011;8599;47.852;12.070;2023-12-20T07:25:09;1.60;;;1.50;;
16965;SDS011;8599;47.852;12.070;2023-12-20T07:27:36;2.73;;;1.10;;
16965;SDS011;8599;47.852;12.070;2023-12-20T07:30:03;0.90;;;0.90;;
16965;SDS011;8599;47.852;12.070;2023-12-20T07:32:32;1.77;;;1.10;;
16965;SDS011;8599;47.852;12.070;2023-12-20T07:34:59;1.47;;;1.03;;
16965;SDS011;8599;47.852;12.070;2023-12-20T07:37:28;1.90;;;1.30;;
16965;SDS011;8599;47.852;12.070;2023-12-20T07:39:54;1.03;;;0.93;;
16965;SDS011;8599;47.852;12.070;2023-12-20T07:42:21;1.90;;;1.70;;
16965;SDS011;8599;47.852;12.070;2023-12-20T07:44:48;1.70;;;1.00;;
16965;SDS011;8599;47.852;12.070;2023-12-20T07:47:15;5.60;;;1.90;;
16965;SDS011;8599;47.852;12.070;2023-12-20T07:49:47;3.00;;;1.20;;
16965;SDS011;8599;47.852;12.070;2023-12-20T07:52:16;1.20;;;1.10;;
16965;SDS011;8599;47.852;12.070;2023-12-20T07:54:43;0.87;;;0.87;;
16965;SDS011;8599;47.852;12.070;2023-12-20T07:57:10;2.63;;;1.10;;
16965;SDS011;8599;47.852;12.070;2023-12-20T07:59:36;1.47;;;1.37;;
16965;SDS011;8599;47.852;12.070;2023-12-20T08:02:03;1.40;;;1.30;;
16965;SDS011;8599;47.852;12.070;2023-12-20T08:04:30;1.30;;;0.90;;
16965;SDS011;8599;47.852;12.070;2023-12-20T08:06:59;2.40;;;1.13;;
16965;SDS011;8599;47.852;12.070;2023-12-20T08:09:26;1.80;;;1.10;;
16965;SDS011;8599;47.852;12.070;2023-12-20T08:11:53;1.50;;;1.17;;
16965;SDS011;8599;47.852;12.070;2023-12-20T08:14:20;1.20;;;1.10;;
16965;SDS011;8599;47.852;12.070;2023-12-20T08:16:46;0.80;;;0.80;;
16965;SDS011;8599;47.852;12.070;2023-12-20T08:19:13;2.03;;;1.10;;
16965;SDS011;8599;47.852;12.070;2023-12-20T08:21:40;1.00;;;1.00;;
16965;SDS011;8599;47.852;12.070;2023-12-20T08:24:09;3.23;;;1.07;;
16965;SDS011;8599;47.852;12.070;2023-12-20T08:26:36;1.00;;;0.90;;
16965;SDS011;8599;47.852;12.070;2023-12-20T08:29:03;0.80;;;0.80;;
16965;SDS011;8599;47.852;12.070;2023-12-20T08:31:29;1.23;;;1.13;;
16965;SDS011;8599;47.852;12.070;2023-12-20T08:33:56;2.50;;;1.20;;
16965;SDS011;8599;47.852;12.070;2023-12-20T08:36:23;4.77;;;2.40;;
16965;SDS011;8599;47.852;12.070;2023-12-20T08:38:50;1.60;;;1.40;;
16965;SDS011;8599;47.852;12.070;2023-12-20T08:41:18;4.63;;;3.03;;
16965;SDS011;8599;47.852;12.070;2023-12-20T08:43:45;3.87;;;1.67;;
16965;SDS011;8599;47.852;12.070;2023-12-20T08:46:13;2.50;;;1.90;;
16965;SDS011;8599;47.852;12.070;2023-12-20T08:48:40;2.07;;;1.57;;
16965;SDS011;8599;47.852;12.070;2023-12-20T08:51:07;1.90;;;1.40;;
16965;SDS011;8599;47.852;12.070;2023-12-20T08:53:34;1.30;;;1.20;;
16965;SDS011;8599;47.852;12.070;2023-12-20T08:56:01;1.63;;;1.20;;
16965;SDS011;8599;47.852;12.070;2023-12-20T08:58:29;0.80;;;0.80;;
16965;SDS011;8599;47.852;12.070;2023-12-20T09:00:56;2.20;;;1.13;;
16965;SDS011;8599;47.852;12.070;2023-12-20T09:03:23;1.77;;;1.40;;
16965;SDS011;8599;47.852;12.070;2023-12-20T09:05:50;1.27;;;1.17;;
16965;SDS011;8599;47.852;12.070;2023-12-20T09:08:17;1.30;;;1.20;;
16965;SDS011;8599;47.852;12.070;2023-12-20T09:10:44;0.77;;;0.77;;
16965;SDS011;8599;47.852;12.070;2023-12-20T09:13:11;1.17;;;1.07;;
16965;SDS011;8599;47.852;12.070;2023-12-20T09:15:39;1.87;;;1.20;;
16965;SDS011;8599;47.852;12.070;2023-12-20T09:18:06;0.80;;;0.80;;
16965;SDS011;8599;47.852;12.070;2023-12-20T09:20:33;1.17;;;0.80;;
16965;SDS011;8599;47.852;12.070;2023-12-20T09:23:00;6.40;;;0.60;;
16965;SDS011;8599;47.852;12.070;2023-12-20T09:25:26;0.67;;;0.60;;
16965;SDS011;8599;47.852;12.070;2023-12-20T09:27:54;0.70;;;0.70;;
16965;SDS011;8599;47.852;12.070;2023-12-20T09:30:21;1.07;;;0.70;;
16965;SDS011;8599;47.852;12.070;2023-12-20T09:32:50;0.80;;;0.60;;
16965;SDS011;8599;47.852;12.070;2023-12-20T09:35:16;1.23;;;0.50;;
16965;SDS011;8599;47.852;12.070;2023-12-20T09:37:43;0.93;;;0.60;;
16965;SDS011;8599;47.852;12.070;2023-12-20T09:40:12;1.30;;;0.80;;
16965;SDS011;8599;47.852;12.070;2023-12-20T09:42:43;0.43;;;0.43;;
16965;SDS011;8599;47.852;12.070;2023-12-20T09:45:15;0.60;;;0.60;;
16965;SDS011;8599;47.852;12.070;2023-12-20T09:47:45;0.40;;;0.40;;
16965;SDS011;8599;47.852;12.070;2023-12-20T09:50:14;0.67;;;0.67;;
16965;SDS011;8599;47.852;12.070;2023-12-20T09:52:41;0.80;;;0.80;;
16965;SDS011;8599;47.852;12.070;2023-12-20T09:55:09;1.33;;;0.90;;
16965;SDS011;8599;47.852;12.070;2023-12-20T09:57:36;1.10;;;0.87;;
16965;SDS011;8599;47.852;12.070;2023-12-20T10:00:04;1.70;;;1.60;;
16965;SDS011;8599;47.852;12.070;2023-12-20T10:02:32;1.53;;;1.43;;
16965;SDS011;8599;47.852;12.070;2023-12-20T10:05:00;0.80;;;0.80;;
16965;SDS011;8599;47.852;12.070;2023-12-20T10:07:29;0.70;;;0.70;;
16965;SDS011;8599;47.852;12.070;2023-12-20T10:09:56;0.60;;;0.60;;
16965;SDS011;8599;47.852;12.070;2023-12-20T10:12:24;2.83;;;0.60;;
16965;SDS011;8599;47.852;12.070;2023-12-20T10:14:50;1.03;;;0.90;;
16965;SDS011;8599;47.852;12.070;2023-12-20T10:17:17;0.70;;;0.70;;
16965;SDS011;8599;47.852;12.070;2023-12-20T10:19:44;0.50;;;0.50;;
16965;SDS011;8599;47.852;12.070;2023-12-20T10:22:11;1.23;;;0.90;;
16965;SDS011;8599;47.852;12.070;2023-12-20T10:24:39;0.90;;;0.80;;
16965;SDS011;8599;47.852;12.070;2023-12-20T10:27:07;0.67;;;0.67;;
16965;SDS011;8599;47.852;12.070;2023-12-20T10:29:34;0.70;;;0.70;;
16965;SDS011;8599;47.852;12.070;2023-12-20T10:32:21;0.60;;;0.60;;
16965;SDS011;8599;47.852;12.070;2023-12-20T10:34:48;1.23;;;0.80;;
16965;SDS011;8599;47.852;12.070;2023-12-20T10:37:15;0.67;;;0.67;;
16965;SDS011;8599;47.852;12.070;2023-12-20T10:39:44;2.37;;;0.40;;
16965;SDS011;8599;47.852;12.070;2023-12-20T10:42:16;0.50;;;0.50;;
16965;SDS011;8599;47.852;12.070;2023-12-20T10:44:46;0.50;;;0.50;;
16965;SDS011;8599;47.852;12.070;2023-12-20T10:47:13;0.50;;;0.50;;
16965;SDS011;8599;47.852;12.070;2023-12-20T10:49:40;0.43;;;0.40;;
16965;SDS011;8599;47.852;12.070;2023-12-20T10:52:07;0.43;;;0.43;;
16965;SDS011;8599;47.852;12.070;2023-12-20T10:54:37;0.60;;;0.60;;
16965;SDS011;8599;47.852;12.070;2023-12-20T10:57:07;0.70;;;0.70;;
16965;SDS011;8599;47.852;12.070;2023-12-20T10:59:38;1.67;;;1.20;;
16965;SDS011;8599;47.852;12.070;2023-12-20T11:02:06;10.57;;;3.93;;
16965;SDS011;8599;47.852;12.070;2023-12-20T11:04:38;4.87;;;1.70;;
16965;SDS011;8599;47.852;12.070;2023-12-20T11:07:15;6.27;;;1.83;;
16965;SDS011;8599;47.852;12.070;2023-12-20T11:09:49;0.77;;;0.70;;
16965;SDS011;8599;47.852;12.070;2023-12-20T11:12:28;3.43;;;1.70;;
16965;SDS011;8599;47.852;12.070;2023-12-20T11:15:06;1.77;;;1.23;;
16965;SDS011;8599;47.852;12.070;2023-12-20T11:17:34;4.77;;;1.87;;
16965;SDS011;8599;47.852;12.070;2023-12-20T11:20:04;1.03;;;0.70;;
16965;SDS011;8599;47.852;12.070;2023-12-20T11:22:31;0.50;;;0.50;;
16965;SDS011;8599;47.852;12.070;2023-12-20T11:25:02;0.70;;;0.70;;
16965;SDS011;8599;47.852;12.070;2023-12-20T11:27:33;1.87;;;1.77;;
16965;SDS011;8599;47.852;12.070;2023-12-20T11:30:00;6.20;;;4.83;;
16965;SDS011;8599;47.852;12.070;2023-12-20T11:32:31;4.63;;;3.20;;
16965;SDS011;8599;47.852;12.070;2023-12-20T11:35:00;22.60;;;12.27;;
16965;SDS011;8599;47.852;12.070;2023-12-20T11:37:42;37.60;;;18.17;;
16965;SDS011;8599;47.852;12.070;2023-12-20T11:40:11;80.13;;;32.83;;
16965;SDS011;8599;47.852;12.070;2023-12-20T11:42:41;135.07;;;51.03;;
16965;SDS011;8599;47.852;12.070;2023-12-20T11:45:09;20.07;;;9.73;;
16965;SDS011;8599;47.852;12.070;2023-12-20T11:47:36;2.97;;;2.20;;
16965;SDS011;8599;47.852;12.070;2023-12-20T11:50:03;2.57;;;1.60;;
16965;SDS011;8599;47.852;12.070;2023-12-20T11:52:30;1.60;;;1.10;;
16965;SDS011;8599;47.852;12.070;2023-12-20T11:54:57;1.80;;;1.70;;
16965;SDS011;8599;47.852;12.070;2023-12-20T11:57:24;3.30;;;0.90;;
16965;SDS011;8599;47.852;12.070;2023-12-20T11:59:53;2.30;;;0.90;;
16965;SDS011;8599;47.852;12.070;2023-12-20T12:02:20;1.23;;;0.90;;
16965;SDS011;8599;47.852;12.070;2023-12-20T12:04:48;0.70;;;0.60;;
16965;SDS011;8599;47.852;12.070;2023-12-20T12:07:15;0.80;;;0.80;;
16965;SDS011;8599;47.852;12.070;2023-12-20T12:09:42;1.27;;;0.67;;
16965;SDS011;8599;47.852;12.070;2023-12-20T12:12:09;0.70;;;0.70;;
16965;SDS011;8599;47.852;12.070;2023-12-20T12:14:37;2.20;;;0.70;;
16965;SDS011;8599;47.852;12.070;2023-12-20T12:17:10;3.50;;;0.93;;
16965;SDS011;8599;47.852;12.070;2023-12-20T12:19:38;2.90;;;1.40;;
16965;SDS011;8599;47.852;12.070;2023-12-20T12:22:05;2.70;;;1.90;;
16965;SDS011;8599;47.852;12.070;2023-12-20T12:24:33;2.67;;;1.90;;
16965;SDS011;8599;47.852;12.070;2023-12-20T12:27:00;3.70;;;1.47;;
16965;SDS011;8599;47.852;12.070;2023-12-20T12:29:27;1.97;;;1.40;;
16965;SDS011;8599;47.852;12.070;2023-12-20T12:31:54;1.13;;;1.00;;
16965;SDS011;8599;47.852;12.070;2023-12-20T12:34:23;1.43;;;1.27;;
16965;SDS011;8599;47.852;12.070;2023-12-20T12:36:51;1.90;;;1.40;;
16965;SDS011;8599;47.852;12.070;2023-12-20T12:39:19;2.70;;;1.67;;
16965;SDS011;8599;47.852;12.070;2023-12-20T12:41:46;2.37;;;1.20;;
16965;SDS011;8599;47.852;12.070;2023-12-20T12:44:13;3.40;;;1.63;;
16965;SDS011;8599;47.852;12.070;2023-12-20T12:46:40;1.57;;;1.43;;
16965;SDS011;8599;47.852;12.070;2023-12-20T12:49:07;1.73;;;0.97;;
16965;SDS011;8599;47.852;12.070;2023-12-20T12:51:35;4.33;;;1.27;;
16965;SDS011;8599;47.852;12.070;2023-12-20T12:54:02;1.67;;;1.33;;
16965;SDS011;8599;47.852;12.070;2023-12-20T12:56:29;1.00;;;0.90;;
16965;SDS011;8599;47.852;12.070;2023-12-20T12:58:56;1.50;;;0.57;;
16965;SDS011;8599;47.852;12.070;2023-12-20T13:01:23;1.63;;;0.83;;
16965;SDS011;8599;47.852;12.070;2023-12-20T13:03:50;0.77;;;0.77;;
16965;SDS011;8599;47.852;12.070;2023-12-20T13:06:16;1.30;;;0.80;;
16965;SDS011;8599;47.852;12.070;2023-12-20T13:08:45;3.47;;;0.80;;
16965;SDS011;8599;47.852;12.070;2023-12-20T13:11:12;1.40;;;0.80;;
16965;SDS011;8599;47.852;12.070;2023-12-20T13:13:39;2.43;;;0.70;;
16965;SDS011;8599;47.852;12.070;2023-12-20T13:16:06;0.77;;;0.77;;
16965;SDS011;8599;47.852;12.070;2023-12-20T13:18:34;0.80;;;0.77;;
16965;SDS011;8599;47.852;12.070;2023-12-20T13:21:01;0.93;;;0.70;;
16965;SDS011;8599;47.852;12.070;2023-12-20T13:23:27;0.80;;;0.80;;
16965;SDS011;8599;47.852;12.070;2023-12-20T13:25:56;0.60;;;0.60;;
16965;SDS011;8599;47.852;12.070;2023-12-20T13:28:23;1.67;;;0.70;;
16965;SDS011;8599;47.852;12.070;2023-12-20T13:30:50;1.53;;;1.43;;
16965;SDS011;8599;47.852;12.070;2023-12-20T13:33:17;1.10;;;1.00;;
16965;SDS011;8599;47.852;12.070;2023-12-20T13:35:43;1.07;;;0.97;;
16965;SDS011;8599;47.852;12.070;2023-12-20T13:38:11;0.70;;;0.70;;
16965;SDS011;8599;47.852;12.070;2023-12-20T13:40:39;0.70;;;0.70;;
16965;SDS011;8599;47.852;12.070;2023-12-20T13:43:07;1.17;;;1.07;;
16965;SDS011;8599;47.852;12.070;2023-12-20T13:45:35;1.10;;;1.00;;
16965;SDS011;8599;47.852;12.070;2023-12-20T13:48:02;1.30;;;1.00;;
16965;SDS011;8599;47.852;12.070;2023-12-20T13:50:29;1.37;;;1.10;;
16965;SDS011;8599;47.852;12.070;2023-12-20T13:52:56;0.93;;;0.93;;
16965;SDS011;8599;47.852;12.070;2023-12-20T13:55:23;0.97;;;0.90;;
16965;SDS011;8599;47.852;12.070;2023-12-20T13:57:52;1.07;;;0.63;;
16965;SDS011;8599;47.852;12.070;2023-12-20T14:00:20;1.00;;;0.80;;
16965;SDS011;8599;47.852;12.070;2023-12-20T14:02:47;1.20;;;1.03;;
16965;SDS011;8599;47.852;12.070;2023-12-20T14:05:15;1.33;;;0.83;;
16965;SDS011;8599;47.852;12.070;2023-12-20T14:07:42;3.13;;;0.90;;
16965;SDS011;8599;47.852;12.070;2023-12-20T14:10:10;1.00;;;0.80;;
16965;SDS011;8599;47.852;12.070;2023-12-20T14:12:37;1.90;;;1.10;;
16965;SDS011;8599;47.852;12.070;2023-12-20T14:15:05;1.07;;;0.97;;
16965;SDS011;8599;47.852;12.070;2023-12-20T14:17:37;1.10;;;1.00;;
16965;SDS011;8599;47.852;12.070;2023-12-20T14:20:05;1.00;;;1.00;;
16965;SDS011;8599;47.852;12.070;2023-12-20T14:22:32;0.77;;;0.70;;
16965;SDS011;8599;47.852;12.070;2023-12-20T14:25:00;0.80;;;0.80;;
16965;SDS011;8599;47.852;12.070;2023-12-20T14:27:26;0.70;;;0.70;;
16965;SDS011;8599;47.852;12.070;2023-12-20T14:29:53;2.70;;;1.00;;
16965;SDS011;8599;47.852;12.070;2023-12-20T14:32:20;1.70;;;1.40;;
16965;SDS011;8599;47.852;12.070;2023-12-20T14:34:48;1.30;;;1.20;;
16965;SDS011;8599;47.852;12.070;2023-12-20T14:37:15;1.00;;;0.80;;
16965;SDS011;8599;47.852;12.070;2023-12-20T14:39:42;0.70;;;0.70;;
16965;SDS011;8599;47.852;12.070;2023-12-20T14:42:09;1.40;;;1.20;;
16965;SDS011;8599;47.852;12.070;2023-12-20T14:44:38;1.23;;;1.07;;
16965;SDS011;8599;47.852;12.070;2023-12-20T14:47:05;1.07;;;1.07;;
16965;SDS011;8599;47.852;12.070;2023-12-20T14:49:33;1.30;;;1.03;;